createdAt,value
2023-03-07T00:04:06.556Z,1.10
2023-03-07T00:09:10.288Z,1.20
2023-03-07T00:14:13.164Z,1.30
2023-03-07T00:19:15.973Z,1.30
2023-03-07T00:24:18.642Z,1.30
2023-03-07T00:29:22.758Z,1.20
2023-03-07T00:34:25.403Z,1.30
2023-03-07T00:39:28.012Z,1.30
2023-03-07T00:44:31.258Z,1.30
2023-03-07T00:49:33.863Z,1.30
2023-03-07T00:54:36.581Z,1.30
2023-03-07T00:59:39.186Z,1.10
2023-03-07T01:04:42.356Z,1.20
2023-03-07T01:09:47.335Z,1.30
2023-03-07T01:14:53.163Z,1.40
2023-03-07T01:19:56.216Z,1.50
2023-03-07T01:24:58.877Z,1.70
2023-03-07T01:30:01.550Z,1.70
2023-03-07T01:35:04.693Z,1.70
2023-03-07T01:40:08.416Z,1.80
2023-03-07T01:45:13.981Z,2.00
2023-03-07T01:50:20.235Z,1.90
2023-03-07T01:55:26.907Z,1.90
2023-03-07T02:00:36.465Z,1.60
2023-03-07T02:05:51.701Z,1.80
2023-03-07T02:10:54.587Z,1.90
2023-03-07T02:16:00.211Z,1.80
2023-03-07T02:21:09.620Z,1.80
2023-03-07T02:26:46.701Z,1.90
2023-03-07T02:31:49.440Z,1.90
2023-03-07T02:36:58.699Z,2.00
2023-03-07T02:42:11.300Z,2.10
2023-03-07T02:47:22.394Z,2.10
2023-03-07T02:52:28.120Z,2.10
2023-03-07T02:57:30.849Z,2.00
2023-03-07T03:02:34.866Z,2.00
2023-03-07T03:07:37.803Z,1.90
2023-03-07T03:12:40.505Z,1.80
2023-03-07T03:17:43.180Z,1.60
2023-03-07T03:22:46.047Z,1.50
2023-03-07T03:27:48.933Z,1.50
2023-03-07T03:32:51.677Z,1.50
2023-03-07T03:37:55.961Z,1.40
2023-03-07T03:43:00.251Z,1.50
2023-03-07T03:48:03.248Z,1.50
2023-03-07T03:53:05.995Z,1.60
2023-03-07T03:58:08.678Z,1.70
2023-03-07T04:03:11.498Z,1.60
2023-03-07T04:08:14.893Z,1.60
2023-03-07T04:13:17.530Z,1.70
2023-03-07T04:18:21.215Z,1.80
2023-03-07T04:23:25.637Z,1.80
2023-03-07T04:28:46.821Z,1.80
2023-03-07T04:33:55.696Z,1.80
2023-03-07T04:38:58.768Z,1.80
2023-03-07T04:44:02.069Z,1.80
2023-03-07T04:49:04.725Z,1.90
2023-03-07T04:54:07.560Z,1.90
2023-03-07T04:59:11.231Z,1.90
2023-03-07T05:04:14.313Z,1.90
2023-03-07T05:09:17.203Z,2.00
2023-03-07T05:14:20.598Z,2.00
2023-03-07T05:19:23.313Z,2.00
2023-03-07T05:24:26.820Z,2.00
2023-03-07T05:29:29.891Z,2.10
2023-03-07T05:34:32.575Z,2.10
2023-03-07T05:39:35.367Z,2.20
2023-03-07T05:44:38.586Z,2.20
2023-03-07T05:49:42.182Z,2.20
2023-03-07T05:54:45.253Z,2.20
2023-03-07T05:59:48.536Z,2.20
2023-03-07T06:04:51.444Z,2.30
2023-03-07T06:09:54.273Z,2.30
2023-03-07T06:14:57.337Z,2.40
2023-03-07T06:20:00.525Z,2.40
2023-03-07T06:25:03.317Z,2.40
2023-03-07T06:30:07.594Z,2.50
2023-03-07T06:35:11.237Z,2.70
2023-03-07T06:40:14.315Z,2.90
2023-03-07T06:45:17.746Z,3.30
2023-03-07T06:50:29.824Z,3.30
2023-03-07T06:55:39.301Z,3.50
2023-03-07T07:00:43.306Z,3.50
2023-03-07T07:05:46.379Z,4.10
2023-03-07T07:10:50.581Z,4.30
2023-03-07T07:15:54.843Z,4.30
2023-03-07T07:20:59.804Z,4.60
2023-03-07T07:26:03.659Z,5.90
2023-03-07T07:31:06.604Z,5.70
2023-03-07T07:36:10.422Z,5.70
2023-03-07T07:41:13.145Z,6.30
2023-03-07T07:46:17.055Z,6.80
2023-03-07T07:51:20.831Z,7.00
2023-03-07T07:56:23.486Z,6.80
2023-03-07T08:01:26.465Z,6.60
2023-03-07T08:06:29.648Z,6.10
2023-03-07T08:11:32.667Z,6.30
2023-03-07T08:16:35.607Z,6.40
2023-03-07T08:21:38.525Z,7.10
2023-03-07T08:26:41.321Z,6.30
2023-03-07T08:31:46.032Z,6.60
2023-03-07T08:36:49.109Z,6.80
2023-03-07T08:41:51.764Z,6.70
2023-03-07T08:46:54.454Z,7.20
2023-03-07T08:51:57.231Z,6.80
2023-03-07T08:57:00.878Z,6.50
2023-03-07T09:02:04.282Z,6.40
2023-03-07T09:07:07.127Z,6.70
2023-03-07T09:12:09.922Z,6.60
2023-03-07T09:17:12.676Z,6.20
2023-03-07T09:22:15.353Z,6.30
2023-03-07T09:27:17.959Z,6.90
2023-03-07T09:32:20.642Z,6.50
2023-03-07T09:37:23.611Z,7.10
2023-03-07T09:42:45.606Z,6.80
2023-03-07T09:48:05.703Z,7.10
2023-03-07T09:53:19.277Z,7.60
2023-03-07T09:58:24.507Z,7.40
2023-03-07T10:04:02.761Z,7.20
2023-03-07T10:09:11.766Z,6.60
2023-03-07T10:14:33.324Z,7.60
2023-03-07T10:20:17.681Z,7.80
2023-03-07T10:25:31.613Z,7.90
2023-03-07T10:30:34.313Z,8.60
2023-03-07T10:35:43.415Z,7.70
2023-03-07T10:40:51.204Z,7.90
2023-03-07T10:46:25.080Z,6.80
2023-03-07T10:51:43.553Z,6.60
2023-03-07T10:57:16.750Z,6.50
2023-03-07T11:02:42.210Z,6.70
2023-03-07T11:07:44.852Z,6.40
2023-03-07T11:12:48.282Z,6.40
2023-03-07T11:17:52.517Z,6.20
2023-03-07T11:23:15.186Z,6.50
2023-03-07T11:28:38.188Z,6.90
2023-03-07T11:34:19.760Z,7.20
2023-03-07T11:39:34.633Z,7.00
2023-03-07T11:44:46.526Z,9.30
2023-03-07T11:50:11.944Z,9.10
2023-03-07T11:55:35.889Z,8.80
2023-03-07T12:00:53.671Z,8.40
2023-03-07T12:06:06.237Z,8.90
2023-03-07T12:11:18.079Z,8.70
2023-03-07T12:16:25.921Z,9.10
2023-03-07T12:21:50.401Z,8.70
2023-03-07T12:27:17.855Z,9.00
2023-03-07T12:32:25.608Z,8.30
2023-03-07T12:37:42.131Z,7.90
2023-03-07T12:42:57.011Z,7.90
2023-03-07T12:48:30.177Z,8.30
2023-03-07T12:53:40.844Z,8.10
2023-03-07T12:59:07.708Z,8.20
2023-03-07T13:04:34.943Z,8.10
2023-03-07T13:09:43.733Z,8.00
2023-03-07T13:14:55.010Z,7.90
2023-03-07T13:20:01.854Z,8.00
2023-03-07T13:25:23.892Z,8.00
2023-03-07T13:30:30.324Z,7.70
2023-03-07T13:35:33.761Z,7.80
2023-03-07T13:40:37.240Z,7.90
2023-03-07T13:45:40.042Z,7.90
2023-03-07T13:50:43.210Z,7.40
2023-03-07T13:55:55.101Z,7.40
2023-03-07T14:01:04.645Z,7.40
2023-03-07T14:06:20.357Z,7.40
2023-03-07T14:11:43.572Z,7.30
2023-03-07T14:17:06.443Z,7.50
2023-03-07T14:22:23.101Z,7.60
2023-03-07T14:27:25.937Z,7.40
2023-03-07T14:32:31.551Z,7.70
2023-03-07T14:37:34.602Z,7.60
2023-03-07T14:43:12.848Z,7.50
2023-03-07T14:48:30.774Z,7.60
2023-03-07T14:53:35.584Z,7.70
2023-03-07T14:58:49.853Z,7.50
2023-03-07T15:03:54.743Z,8.10
2023-03-07T15:08:59.417Z,8.30
2023-03-07T15:14:05.001Z,8.30
2023-03-07T15:19:20.783Z,8.10
2023-03-07T15:24:34.622Z,8.10
2023-03-07T15:29:37.972Z,8.10
2023-03-07T15:34:41.420Z,8.00
2023-03-07T15:39:54.270Z,8.00
2023-03-07T15:44:59.211Z,7.80
2023-03-07T15:50:07.332Z,7.80
2023-03-07T15:55:21.852Z,7.50
2023-03-07T16:00:35.344Z,6.80
2023-03-07T16:05:38.521Z,6.50
2023-03-07T16:10:59.204Z,6.30
2023-03-07T16:16:17.614Z,6.30
2023-03-07T16:21:21.251Z,6.10
2023-03-07T16:26:25.419Z,6.00
2023-03-07T16:31:28.240Z,5.90
2023-03-07T16:36:30.988Z,5.90
2023-03-07T16:41:33.703Z,5.70
2023-03-07T16:46:36.477Z,5.70
2023-03-07T16:51:39.215Z,5.50
2023-03-07T16:56:45.454Z,5.60
2023-03-07T17:01:50.242Z,5.50
2023-03-07T17:07:04.097Z,5.40
2023-03-07T17:12:08.626Z,5.40
2023-03-07T17:17:28.048Z,5.30
2023-03-07T17:22:30.944Z,5.30
2023-03-07T17:27:35.751Z,5.30
2023-03-07T17:32:38.775Z,5.20
2023-03-07T17:37:43.230Z,5.10
2023-03-07T17:42:48.423Z,5.10
2023-03-07T17:47:55.339Z,5.20
2023-03-07T17:52:58.865Z,5.20
2023-03-07T17:58:01.772Z,5.20
2023-03-07T18:03:05.925Z,5.30
2023-03-07T18:08:10.067Z,5.20
2023-03-07T18:13:13.082Z,5.10
2023-03-07T18:18:16.553Z,5.10
2023-03-07T18:23:19.314Z,5.10
2023-03-07T18:28:22.138Z,5.10
2023-03-07T18:33:25.469Z,5.10
2023-03-07T18:38:28.552Z,5.00
2023-03-07T18:43:31.355Z,5.00
2023-03-07T18:48:34.693Z,4.90
2023-03-07T18:53:38.623Z,5.00
2023-03-07T18:58:42.818Z,5.00
2023-03-07T19:03:47.168Z,5.00
2023-03-07T19:08:50.854Z,5.00
2023-03-07T19:13:53.667Z,5.10
2023-03-07T19:18:57.002Z,5.10
2023-03-07T19:24:01.968Z,5.10
2023-03-07T19:29:04.693Z,5.20
2023-03-07T19:34:07.369Z,5.30
2023-03-07T19:39:15.509Z,5.30
2023-03-07T19:44:18.442Z,5.40
2023-03-07T19:49:23.265Z,5.40
2023-03-07T19:54:26.053Z,5.40
2023-03-07T19:59:28.747Z,5.40
2023-03-07T20:04:31.497Z,5.30
2023-03-07T20:09:34.768Z,5.40
2023-03-07T20:14:42.931Z,5.50
2023-03-07T20:19:45.844Z,5.60
2023-03-07T20:24:52.686Z,5.70
2023-03-07T20:29:55.712Z,5.80
2023-03-07T20:35:03.641Z,5.80
2023-03-07T20:40:06.954Z,5.80
2023-03-07T20:45:10.073Z,5.90
2023-03-07T20:50:12.879Z,6.00
2023-03-07T20:55:15.710Z,6.00
2023-03-07T21:00:18.747Z,6.10
2023-03-07T21:05:21.407Z,6.20
2023-03-07T21:10:25.095Z,6.20
2023-03-07T21:15:27.942Z,6.20
2023-03-07T21:20:30.665Z,6.20
2023-03-07T21:25:33.393Z,6.20
2023-03-07T21:30:36.151Z,6.30
2023-03-07T21:35:40.098Z,6.30
2023-03-07T21:40:42.797Z,6.30
2023-03-07T21:45:45.397Z,6.30
2023-03-07T21:50:55.578Z,6.40
2023-03-07T21:56:04.344Z,6.40
2023-03-07T22:01:16.307Z,6.30
2023-03-07T22:06:19.349Z,6.30
2023-03-07T22:11:22.268Z,6.20
2023-03-07T22:16:24.936Z,6.20
2023-03-07T22:21:27.984Z,6.30
2023-03-07T22:26:31.768Z,6.30
2023-03-07T22:31:34.598Z,6.20
2023-03-07T22:36:37.205Z,6.20
2023-03-07T22:41:39.784Z,6.20
2023-03-07T22:46:42.624Z,6.20
2023-03-07T22:51:45.360Z,6.20
2023-03-07T22:56:48.172Z,6.20
2023-03-07T23:01:52.369Z,6.20
2023-03-07T23:06:54.940Z,6.10
2023-03-07T23:11:57.497Z,6.00
2023-03-07T23:17:00.150Z,6.10
2023-03-07T23:22:02.763Z,6.10
2023-03-07T23:27:05.393Z,6.00
2023-03-07T23:32:08.175Z,6.00
2023-03-07T23:37:10.751Z,6.00
2023-03-07T23:42:13.677Z,6.00
2023-03-07T23:47:17.011Z,6.00
2023-03-07T23:52:19.567Z,6.00
2023-03-07T23:57:22.612Z,6.00
